sensor_id;sensor_type;location;lat;lon;timestamp;P1;durP1;ratioP1;P2;durP2;ratioP2
69319;SDS011;56467;53.502;49.248;2022-09-27T00:00:39;1.50;;;0.80;;
69319;SDS011;56467;53.502;49.248;2022-09-27T00:03:08;0.60;;;0.60;;
69319;SDS011;56467;53.502;49.248;2022-09-27T00:05:35;0.80;;;0.70;;
69319;SDS011;56467;53.502;49.248;2022-09-27T00:08:00;0.65;;;0.65;;
69319;SDS011;56467;53.502;49.248;2022-09-27T00:10:26;0.75;;;0.70;;
69319;SDS011;56467;53.502;49.248;2022-09-27T00:12:53;0.70;;;0.70;;
69319;SDS011;56467;53.502;49.248;2022-09-27T00:15:19;0.70;;;0.70;;
69319;SDS011;56467;53.502;49.248;2022-09-27T00:17:45;0.73;;;0.73;;
69319;SDS011;56467;53.502;49.248;2022-09-27T00:20:11;0.80;;;0.80;;
69319;SDS011;56467;53.502;49.248;2022-09-27T00:22:37;0.82;;;0.60;;
69319;SDS011;56467;53.502;49.248;2022-09-27T00:25:03;0.70;;;0.70;;
69319;SDS011;56467;53.502;49.248;2022-09-27T00:27:31;0.77;;;0.70;;
69319;SDS011;56467;53.502;49.248;2022-09-27T00:29:57;0.60;;;0.60;;
69319;SDS011;56467;53.502;49.248;2022-09-27T00:32:23;1.00;;;0.90;;
69319;SDS011;56467;53.502;49.248;2022-09-27T00:34:48;0.77;;;0.77;;
69319;SDS011;56467;53.502;49.248;2022-09-27T00:37:14;0.80;;;0.80;;
69319;SDS011;56467;53.502;49.248;2022-09-27T00:39:40;0.60;;;0.60;;
69319;SDS011;56467;53.502;49.248;2022-09-27T00:42:10;0.95;;;0.60;;
69319;SDS011;56467;53.502;49.248;2022-09-27T00:47:18;0.70;;;0.70;;
69319;SDS011;56467;53.502;49.248;2022-09-27T00:50:10;0.60;;;0.60;;
69319;SDS011;56467;53.502;49.248;2022-09-27T00:52:46;0.80;;;0.80;;
69319;SDS011;56467;53.502;49.248;2022-09-27T00:55:22;0.60;;;0.60;;
69319;SDS011;56467;53.502;49.248;2022-09-27T00:57:52;1.05;;;0.73;;
69319;SDS011;56467;53.502;49.248;2022-09-27T01:00:18;2.05;;;0.70;;
69319;SDS011;56467;53.502;49.248;2022-09-27T01:02:46;0.60;;;0.60;;
69319;SDS011;56467;53.502;49.248;2022-09-27T01:05:16;0.80;;;0.80;;
69319;SDS011;56467;53.502;49.248;2022-09-27T01:07:45;0.65;;;0.65;;
69319;SDS011;56467;53.502;49.248;2022-09-27T01:10:11;0.65;;;0.60;;
69319;SDS011;56467;53.502;49.248;2022-09-27T01:12:53;0.80;;;0.75;;
69319;SDS011;56467;53.502;49.248;2022-09-27T01:28:39;0.70;;;0.70;;
69319;SDS011;56467;53.502;49.248;2022-09-27T01:45:13;0.70;;;0.70;;
69319;SDS011;56467;53.502;49.248;2022-09-27T01:50:28;0.70;;;0.70;;
69319;SDS011;56467;53.502;49.248;2022-09-27T01:53:04;1.05;;;0.70;;
69319;SDS011;56467;53.502;49.248;2022-09-27T01:55:34;0.98;;;0.82;;
69319;SDS011;56467;53.502;49.248;2022-09-27T01:58:07;0.73;;;0.73;;
69319;SDS011;56467;53.502;49.248;2022-09-27T02:00:39;0.80;;;0.80;;
69319;SDS011;56467;53.502;49.248;2022-09-27T02:03:12;0.70;;;0.70;;
69319;SDS011;56467;53.502;49.248;2022-09-27T02:05:46;0.70;;;0.63;;
69319;SDS011;56467;53.502;49.248;2022-09-27T02:09:00;1.83;;;0.80;;
69319;SDS011;56467;53.502;49.248;2022-09-27T02:11:20;0.98;;;0.77;;
69319;SDS011;56467;53.502;49.248;2022-09-27T02:14:03;0.95;;;0.70;;
69319;SDS011;56467;53.502;49.248;2022-09-27T02:24:40;0.70;;;0.70;;
69319;SDS011;56467;53.502;49.248;2022-09-27T02:27:12;0.80;;;0.80;;
69319;SDS011;56467;53.502;49.248;2022-09-27T02:30:08;0.70;;;0.70;;
69319;SDS011;56467;53.502;49.248;2022-09-27T02:32:37;1.15;;;0.90;;
69319;SDS011;56467;53.502;49.248;2022-09-27T02:35:23;1.85;;;0.80;;
69319;SDS011;56467;53.502;49.248;2022-09-27T02:37:57;1.05;;;0.60;;
69319;SDS011;56467;53.502;49.248;2022-09-27T02:40:25;0.90;;;0.90;;
69319;SDS011;56467;53.502;49.248;2022-09-27T02:42:56;0.60;;;0.60;;
69319;SDS011;56467;53.502;49.248;2022-09-27T02:45:24;1.70;;;0.90;;
69319;SDS011;56467;53.502;49.248;2022-09-27T03:01:26;1.23;;;0.90;;
69319;SDS011;56467;53.502;49.248;2022-09-27T03:06:24;0.75;;;0.75;;
69319;SDS011;56467;53.502;49.248;2022-09-27T03:08:52;1.05;;;0.68;;
69319;SDS011;56467;53.502;49.248;2022-09-27T03:11:17;0.80;;;0.80;;
69319;SDS011;56467;53.502;49.248;2022-09-27T03:13:43;0.60;;;0.60;;
69319;SDS011;56467;53.502;49.248;2022-09-27T03:16:10;0.70;;;0.70;;
69319;SDS011;56467;53.502;49.248;2022-09-27T03:18:36;0.70;;;0.70;;
69319;SDS011;56467;53.502;49.248;2022-09-27T03:21:01;0.80;;;0.80;;
69319;SDS011;56467;53.502;49.248;2022-09-27T03:23:27;0.88;;;0.70;;
69319;SDS011;56467;53.502;49.248;2022-09-27T03:25:54;0.95;;;0.75;;
69319;SDS011;56467;53.502;49.248;2022-09-27T03:28:20;0.73;;;0.73;;
69319;SDS011;56467;53.502;49.248;2022-09-27T03:30:45;0.73;;;0.73;;
69319;SDS011;56467;53.502;49.248;2022-09-27T03:33:11;0.90;;;0.90;;
69319;SDS011;56467;53.502;49.248;2022-09-27T03:35:37;0.77;;;0.77;;
69319;SDS011;56467;53.502;49.248;2022-09-27T03:38:04;0.80;;;0.80;;
69319;SDS011;56467;53.502;49.248;2022-09-27T03:40:31;0.80;;;0.80;;
69319;SDS011;56467;53.502;49.248;2022-09-27T03:42:57;0.70;;;0.70;;
69319;SDS011;56467;53.502;49.248;2022-09-27T03:45:23;0.70;;;0.70;;
69319;SDS011;56467;53.502;49.248;2022-09-27T03:47:49;0.73;;;0.70;;
69319;SDS011;56467;53.502;49.248;2022-09-27T03:50:15;1.10;;;0.80;;
69319;SDS011;56467;53.502;49.248;2022-09-27T03:52:42;0.80;;;0.80;;
69319;SDS011;56467;53.502;49.248;2022-09-27T03:55:08;1.25;;;0.88;;
69319;SDS011;56467;53.502;49.248;2022-09-27T03:57:35;0.70;;;0.70;;
69319;SDS011;56467;53.502;49.248;2022-09-27T04:00:01;0.90;;;0.90;;
69319;SDS011;56467;53.502;49.248;2022-09-27T04:02:28;0.75;;;0.65;;
69319;SDS011;56467;53.502;49.248;2022-09-27T04:04:54;0.73;;;0.73;;
69319;SDS011;56467;53.502;49.248;2022-09-27T04:07:20;0.70;;;0.70;;
69319;SDS011;56467;53.502;49.248;2022-09-27T04:09:47;0.88;;;0.77;;
69319;SDS011;56467;53.502;49.248;2022-09-27T04:12:13;0.77;;;0.73;;
69319;SDS011;56467;53.502;49.248;2022-09-27T04:14:39;1.17;;;0.80;;
69319;SDS011;56467;53.502;49.248;2022-09-27T04:17:06;0.77;;;0.77;;
69319;SDS011;56467;53.502;49.248;2022-09-27T04:19:32;1.60;;;0.73;;
69319;SDS011;56467;53.502;49.248;2022-09-27T04:21:57;0.80;;;0.70;;
69319;SDS011;56467;53.502;49.248;2022-09-27T04:24:23;0.80;;;0.80;;
69319;SDS011;56467;53.502;49.248;2022-09-27T04:26:49;0.75;;;0.70;;
69319;SDS011;56467;53.502;49.248;2022-09-27T04:29:16;0.70;;;0.70;;
69319;SDS011;56467;53.502;49.248;2022-09-27T04:31:41;1.33;;;0.70;;
69319;SDS011;56467;53.502;49.248;2022-09-27T04:34:09;0.77;;;0.70;;
69319;SDS011;56467;53.502;49.248;2022-09-27T04:36:35;0.90;;;0.68;;
69319;SDS011;56467;53.502;49.248;2022-09-27T04:39:02;0.60;;;0.60;;
69319;SDS011;56467;53.502;49.248;2022-09-27T04:41:30;0.90;;;0.80;;
69319;SDS011;56467;53.502;49.248;2022-09-27T04:43:56;0.77;;;0.77;;
69319;SDS011;56467;53.502;49.248;2022-09-27T04:46:24;1.90;;;0.73;;
69319;SDS011;56467;53.502;49.248;2022-09-27T04:48:50;1.00;;;0.90;;
69319;SDS011;56467;53.502;49.248;2022-09-27T04:51:16;0.98;;;0.70;;
69319;SDS011;56467;53.502;49.248;2022-09-27T04:53:46;0.90;;;0.77;;
69319;SDS011;56467;53.502;49.248;2022-09-27T04:56:12;1.30;;;0.80;;
69319;SDS011;56467;53.502;49.248;2022-09-27T04:58:40;0.80;;;0.80;;
69319;SDS011;56467;53.502;49.248;2022-09-27T05:01:06;0.75;;;0.75;;
69319;SDS011;56467;53.502;49.248;2022-09-27T05:03:33;0.80;;;0.77;;
69319;SDS011;56467;53.502;49.248;2022-09-27T05:05:59;2.10;;;0.80;;
69319;SDS011;56467;53.502;49.248;2022-09-27T05:08:26;0.70;;;0.70;;
69319;SDS011;56467;53.502;49.248;2022-09-27T05:10:52;1.13;;;0.80;;
69319;SDS011;56467;53.502;49.248;2022-09-27T05:13:18;1.05;;;0.80;;
69319;SDS011;56467;53.502;49.248;2022-09-27T05:15:44;0.70;;;0.70;;
69319;SDS011;56467;53.502;49.248;2022-09-27T05:18:10;1.33;;;0.80;;
69319;SDS011;56467;53.502;49.248;2022-09-27T05:20:36;0.82;;;0.75;;
69319;SDS011;56467;53.502;49.248;2022-09-27T05:23:02;0.90;;;0.73;;
69319;SDS011;56467;53.502;49.248;2022-09-27T05:25:29;1.40;;;0.75;;
69319;SDS011;56467;53.502;49.248;2022-09-27T05:27:56;1.33;;;0.70;;
69319;SDS011;56467;53.502;49.248;2022-09-27T05:30:23;0.90;;;0.85;;
69319;SDS011;56467;53.502;49.248;2022-09-27T05:32:50;0.85;;;0.70;;
69319;SDS011;56467;53.502;49.248;2022-09-27T05:35:17;1.02;;;0.82;;
69319;SDS011;56467;53.502;49.248;2022-09-27T05:37:49;0.70;;;0.70;;
69319;SDS011;56467;53.502;49.248;2022-09-27T05:40:16;0.70;;;0.70;;
69319;SDS011;56467;53.502;49.248;2022-09-27T05:42:42;0.70;;;0.70;;
69319;SDS011;56467;53.502;49.248;2022-09-27T05:45:08;0.75;;;0.70;;
69319;SDS011;56467;53.502;49.248;2022-09-27T05:47:34;1.02;;;0.90;;
69319;SDS011;56467;53.502;49.248;2022-09-27T05:50:00;0.70;;;0.70;;
69319;SDS011;56467;53.502;49.248;2022-09-27T05:52:26;0.70;;;0.70;;
69319;SDS011;56467;53.502;49.248;2022-09-27T05:54:53;0.80;;;0.80;;
69319;SDS011;56467;53.502;49.248;2022-09-27T05:57:19;1.05;;;0.70;;
69319;SDS011;56467;53.502;49.248;2022-09-27T05:59:45;0.98;;;0.70;;
69319;SDS011;56467;53.502;49.248;2022-09-27T06:02:11;1.40;;;0.82;;
69319;SDS011;56467;53.502;49.248;2022-09-27T06:04:37;1.45;;;0.82;;
69319;SDS011;56467;53.502;49.248;2022-09-27T06:07:03;0.80;;;0.80;;
69319;SDS011;56467;53.502;49.248;2022-09-27T06:09:29;0.80;;;0.80;;
69319;SDS011;56467;53.502;49.248;2022-09-27T06:11:54;0.82;;;0.80;;
69319;SDS011;56467;53.502;49.248;2022-09-27T06:14:20;0.80;;;0.80;;
69319;SDS011;56467;53.502;49.248;2022-09-27T06:16:46;0.88;;;0.80;;
69319;SDS011;56467;53.502;49.248;2022-09-27T06:19:12;1.17;;;1.08;;
69319;SDS011;56467;53.502;49.248;2022-09-27T06:21:38;3.58;;;1.40;;
69319;SDS011;56467;53.502;49.248;2022-09-27T06:24:03;1.55;;;1.30;;
69319;SDS011;56467;53.502;49.248;2022-09-27T06:26:30;1.50;;;1.40;;
69319;SDS011;56467;53.502;49.248;2022-09-27T06:28:58;1.60;;;1.42;;
69319;SDS011;56467;53.502;49.248;2022-09-27T06:31:24;1.63;;;1.50;;
69319;SDS011;56467;53.502;49.248;2022-09-27T06:33:50;2.70;;;1.70;;
69319;SDS011;56467;53.502;49.248;2022-09-27T06:36:16;2.10;;;1.80;;
69319;SDS011;56467;53.502;49.248;2022-09-27T06:38:42;4.20;;;2.00;;
69319;SDS011;56467;53.502;49.248;2022-09-27T06:41:10;2.40;;;1.90;;
69319;SDS011;56467;53.502;49.248;2022-09-27T06:43:37;3.33;;;2.20;;
69319;SDS011;56467;53.502;49.248;2022-09-27T06:46:03;2.35;;;2.03;;
69319;SDS011;56467;53.502;49.248;2022-09-27T06:48:30;2.75;;;1.98;;
69319;SDS011;56467;53.502;49.248;2022-09-27T06:50:56;2.05;;;1.77;;
69319;SDS011;56467;53.502;49.248;2022-09-27T06:53:22;2.85;;;1.80;;
69319;SDS011;56467;53.502;49.248;2022-09-27T06:55:49;2.17;;;1.98;;
69319;SDS011;56467;53.502;49.248;2022-09-27T06:58:15;3.08;;;1.90;;
69319;SDS011;56467;53.502;49.248;2022-09-27T07:01:03;2.95;;;1.80;;
69319;SDS011;56467;53.502;49.248;2022-09-27T07:03:28;2.40;;;1.90;;
69319;SDS011;56467;53.502;49.248;2022-09-27T07:06:00;2.55;;;1.60;;
69319;SDS011;56467;53.502;49.248;2022-09-27T07:08:27;1.75;;;1.45;;
69319;SDS011;56467;53.502;49.248;2022-09-27T07:11:04;2.00;;;1.67;;
69319;SDS011;56467;53.502;49.248;2022-09-27T07:13:31;3.17;;;1.60;;
69319;SDS011;56467;53.502;49.248;2022-09-27T07:15:59;2.47;;;1.70;;
69319;SDS011;56467;53.502;49.248;2022-09-27T07:18:25;1.60;;;1.50;;
69319;SDS011;56467;53.502;49.248;2022-09-27T07:20:52;1.73;;;1.63;;
69319;SDS011;56467;53.502;49.248;2022-09-27T07:23:18;2.88;;;1.70;;
69319;SDS011;56467;53.502;49.248;2022-09-27T07:25:44;2.03;;;1.50;;
69319;SDS011;56467;53.502;49.248;2022-09-27T07:28:15;1.58;;;1.48;;
69319;SDS011;56467;53.502;49.248;2022-09-27T07:30:43;2.08;;;1.70;;
69319;SDS011;56467;53.502;49.248;2022-09-27T07:33:09;2.20;;;1.63;;
69319;SDS011;56467;53.502;49.248;2022-09-27T07:35:38;1.92;;;1.70;;
69319;SDS011;56467;53.502;49.248;2022-09-27T07:38:05;2.03;;;1.48;;
69319;SDS011;56467;53.502;49.248;2022-09-27T07:40:36;2.20;;;1.40;;
69319;SDS011;56467;53.502;49.248;2022-09-27T07:43:02;1.83;;;1.48;;
69319;SDS011;56467;53.502;49.248;2022-09-27T07:45:29;1.92;;;1.65;;
69319;SDS011;56467;53.502;49.248;2022-09-27T07:47:55;1.92;;;1.55;;
69319;SDS011;56467;53.502;49.248;2022-09-27T07:50:22;2.85;;;1.50;;
69319;SDS011;56467;53.502;49.248;2022-09-27T07:52:48;2.50;;;1.60;;
69319;SDS011;56467;53.502;49.248;2022-09-27T07:55:18;1.40;;;1.30;;
69319;SDS011;56467;53.502;49.248;2022-09-27T07:57:44;2.20;;;1.42;;
69319;SDS011;56467;53.502;49.248;2022-09-27T08:00:12;6.38;;;1.48;;
69319;SDS011;56467;53.502;49.248;2022-09-27T08:02:40;3.47;;;1.50;;
69319;SDS011;56467;53.502;49.248;2022-09-27T08:05:06;3.08;;;1.60;;
69319;SDS011;56467;53.502;49.248;2022-09-27T08:07:33;4.45;;;1.58;;
69319;SDS011;56467;53.502;49.248;2022-09-27T08:09:59;3.60;;;1.42;;
69319;SDS011;56467;53.502;49.248;2022-09-27T08:12:25;3.97;;;1.50;;
69319;SDS011;56467;53.502;49.248;2022-09-27T08:14:50;3.28;;;1.50;;
69319;SDS011;56467;53.502;49.248;2022-09-27T08:17:17;3.47;;;1.40;;
69319;SDS011;56467;53.502;49.248;2022-09-27T08:19:43;3.95;;;1.60;;
69319;SDS011;56467;53.502;49.248;2022-09-27T08:22:09;3.08;;;1.48;;
69319;SDS011;56467;53.502;49.248;2022-09-27T08:24:38;2.90;;;1.50;;
69319;SDS011;56467;53.502;49.248;2022-09-27T08:27:06;3.08;;;1.48;;
69319;SDS011;56467;53.502;49.248;2022-09-27T08:29:35;2.92;;;1.50;;
69319;SDS011;56467;53.502;49.248;2022-09-27T08:32:01;3.63;;;1.30;;
69319;SDS011;56467;53.502;49.248;2022-09-27T08:34:27;2.60;;;1.50;;
69319;SDS011;56467;53.502;49.248;2022-09-27T08:36:53;3.80;;;1.50;;
69319;SDS011;56467;53.502;49.248;2022-09-27T08:39:20;4.45;;;1.50;;
69319;SDS011;56467;53.502;49.248;2022-09-27T08:47:25;5.85;;;1.70;;
69319;SDS011;56467;53.502;49.248;2022-09-27T08:52:46;4.78;;;1.83;;
69319;SDS011;56467;53.502;49.248;2022-09-27T08:57:57;4.32;;;1.70;;
69319;SDS011;56467;53.502;49.248;2022-09-27T09:00:23;4.78;;;1.60;;
69319;SDS011;56467;53.502;49.248;2022-09-27T09:02:49;4.22;;;1.60;;
69319;SDS011;56467;53.502;49.248;2022-09-27T09:05:37;5.13;;;1.92;;
69319;SDS011;56467;53.502;49.248;2022-09-27T09:11:16;2.67;;;1.63;;
69319;SDS011;56467;53.502;49.248;2022-09-27T09:14:34;2.50;;;1.50;;
69319;SDS011;56467;53.502;49.248;2022-09-27T09:19:58;2.28;;;1.60;;
69319;SDS011;56467;53.502;49.248;2022-09-27T09:22:49;1.75;;;1.30;;
69319;SDS011;56467;53.502;49.248;2022-09-27T09:33:22;2.28;;;1.58;;
69319;SDS011;56467;53.502;49.248;2022-09-27T09:35:58;3.03;;;1.60;;
69319;SDS011;56467;53.502;49.248;2022-09-27T09:38:53;1.40;;;1.30;;
69319;SDS011;56467;53.502;49.248;2022-09-27T09:47:25;1.75;;;1.45;;
69319;SDS011;56467;53.502;49.248;2022-09-27T09:50:00;1.40;;;1.30;;
69319;SDS011;56467;53.502;49.248;2022-09-27T09:52:38;2.28;;;1.55;;
69319;SDS011;56467;53.502;49.248;2022-09-27T09:55:17;2.30;;;1.50;;
69319;SDS011;56467;53.502;49.248;2022-09-27T09:57:48;3.17;;;1.60;;
69319;SDS011;56467;53.502;49.248;2022-09-27T10:00:23;4.00;;;1.58;;
69319;SDS011;56467;53.502;49.248;2022-09-27T10:02:49;2.17;;;1.63;;
69319;SDS011;56467;53.502;49.248;2022-09-27T10:05:22;2.33;;;1.60;;
69319;SDS011;56467;53.502;49.248;2022-09-27T10:07:50;2.80;;;1.60;;
69319;SDS011;56467;53.502;49.248;2022-09-27T10:10:19;4.28;;;1.75;;
69319;SDS011;56467;53.502;49.248;2022-09-27T10:12:46;2.42;;;1.70;;
69319;SDS011;56467;53.502;49.248;2022-09-27T10:15:14;3.35;;;1.60;;
69319;SDS011;56467;53.502;49.248;2022-09-27T10:17:44;5.80;;;1.60;;
69319;SDS011;56467;53.502;49.248;2022-09-27T10:20:21;2.05;;;1.60;;
69319;SDS011;56467;53.502;49.248;2022-09-27T10:23:14;2.80;;;1.48;;
69319;SDS011;56467;53.502;49.248;2022-09-27T10:25:57;2.47;;;1.60;;
69319;SDS011;56467;53.502;49.248;2022-09-27T10:31:06;2.45;;;1.60;;
69319;SDS011;56467;53.502;49.248;2022-09-27T10:33:36;1.80;;;1.70;;
69319;SDS011;56467;53.502;49.248;2022-09-27T10:36:26;5.35;;;1.60;;
69319;SDS011;56467;53.502;49.248;2022-09-27T10:38:57;2.03;;;1.60;;
69319;SDS011;56467;53.502;49.248;2022-09-27T10:41:32;1.70;;;1.60;;
69319;SDS011;56467;53.502;49.248;2022-09-27T10:46:53;2.88;;;1.60;;
69319;SDS011;56467;53.502;49.248;2022-09-27T10:49:34;2.10;;;1.55;;
69319;SDS011;56467;53.502;49.248;2022-09-27T10:52:13;3.05;;;1.60;;
69319;SDS011;56467;53.502;49.248;2022-09-27T10:54:51;2.38;;;1.70;;
69319;SDS011;56467;53.502;49.248;2022-09-27T10:57:22;2.95;;;1.40;;
69319;SDS011;56467;53.502;49.248;2022-09-27T10:59:54;2.80;;;1.55;;
69319;SDS011;56467;53.502;49.248;2022-09-27T11:02:23;3.97;;;1.60;;
69319;SDS011;56467;53.502;49.248;2022-09-27T11:05:13;1.98;;;1.40;;
69319;SDS011;56467;53.502;49.248;2022-09-27T11:07:58;1.95;;;1.48;;
69319;SDS011;56467;53.502;49.248;2022-09-27T11:10:34;2.20;;;1.50;;
69319;SDS011;56467;53.502;49.248;2022-09-27T11:13:11;2.08;;;1.30;;
69319;SDS011;56467;53.502;49.248;2022-09-27T11:48:58;3.42;;;1.40;;
69319;SDS011;56467;53.502;49.248;2022-09-27T11:56:48;1.92;;;1.30;;
69319;SDS011;56467;53.502;49.248;2022-09-27T11:59:42;2.67;;;1.38;;
69319;SDS011;56467;53.502;49.248;2022-09-27T12:08:06;1.80;;;1.60;;
69319;SDS011;56467;53.502;49.248;2022-09-27T12:10:52;1.50;;;1.40;;
69319;SDS011;56467;53.502;49.248;2022-09-27T12:13:37;1.30;;;1.13;;
69319;SDS011;56467;53.502;49.248;2022-09-27T12:16:11;1.65;;;1.27;;
69319;SDS011;56467;53.502;49.248;2022-09-27T12:18:41;1.50;;;1.40;;
69319;SDS011;56467;53.502;49.248;2022-09-27T12:21:09;1.48;;;1.20;;
69319;SDS011;56467;53.502;49.248;2022-09-27T12:23:40;1.33;;;1.23;;
69319;SDS011;56467;53.502;49.248;2022-09-27T12:26:29;1.50;;;1.33;;
69319;SDS011;56467;53.502;49.248;2022-09-27T12:28:59;1.33;;;1.23;;
69319;SDS011;56467;53.502;49.248;2022-09-27T12:31:33;2.30;;;1.40;;
69319;SDS011;56467;53.502;49.248;2022-09-27T12:37:02;1.63;;;1.30;;
69319;SDS011;56467;53.502;49.248;2022-09-27T12:42:00;1.30;;;1.20;;
69319;SDS011;56467;53.502;49.248;2022-09-27T12:44:35;2.20;;;1.30;;
69319;SDS011;56467;53.502;49.248;2022-09-27T12:52:17;2.35;;;1.30;;
69319;SDS011;56467;53.502;49.248;2022-09-27T13:00:17;1.95;;;1.15;;
69319;SDS011;56467;53.502;49.248;2022-09-27T13:05:44;1.38;;;1.10;;
69319;SDS011;56467;53.502;49.248;2022-09-27T13:11:38;2.38;;;1.30;;
69319;SDS011;56467;53.502;49.248;2022-09-27T13:14:05;2.42;;;1.10;;
69319;SDS011;56467;53.502;49.248;2022-09-27T13:16:57;2.05;;;1.38;;
69319;SDS011;56467;53.502;49.248;2022-09-27T13:19:37;3.45;;;1.27;;
69319;SDS011;56467;53.502;49.248;2022-09-27T13:22:10;1.48;;;1.17;;
69319;SDS011;56467;53.502;49.248;2022-09-27T13:24:52;2.28;;;1.30;;
69319;SDS011;56467;53.502;49.248;2022-09-27T13:29:47;2.50;;;1.20;;
69319;SDS011;56467;53.502;49.248;2022-09-27T13:32:15;1.33;;;1.13;;
69319;SDS011;56467;53.502;49.248;2022-09-27T13:34:46;1.20;;;1.10;;
69319;SDS011;56467;53.502;49.248;2022-09-27T13:37:26;1.35;;;1.25;;
69319;SDS011;56467;53.502;49.248;2022-09-27T13:45:37;1.35;;;1.20;;
69319;SDS011;56467;53.502;49.248;2022-09-27T13:48:15;2.05;;;1.30;;
69319;SDS011;56467;53.502;49.248;2022-09-27T13:53:39;1.30;;;1.20;;
69319;SDS011;56467;53.502;49.248;2022-09-27T13:59:05;2.25;;;1.20;;
69319;SDS011;56467;53.502;49.248;2022-09-27T14:01:39;1.67;;;1.10;;
69319;SDS011;56467;53.502;49.248;2022-09-27T14:06:47;1.45;;;1.15;;
69319;SDS011;56467;53.502;49.248;2022-09-27T14:09:23;2.42;;;1.10;;
69319;SDS011;56467;53.502;49.248;2022-09-27T14:11:52;1.35;;;1.13;;
69319;SDS011;56467;53.502;49.248;2022-09-27T14:14:23;1.35;;;1.20;;
69319;SDS011;56467;53.502;49.248;2022-09-27T14:16:53;1.33;;;1.23;;
69319;SDS011;56467;53.502;49.248;2022-09-27T14:19:22;1.38;;;1.27;;
69319;SDS011;56467;53.502;49.248;2022-09-27T14:21:50;1.13;;;1.02;;
69319;SDS011;56467;53.502;49.248;2022-09-27T14:27:05;1.30;;;1.20;;
69319;SDS011;56467;53.502;49.248;2022-09-27T14:29:45;1.42;;;1.02;;
69319;SDS011;56467;53.502;49.248;2022-09-27T14:32:15;1.42;;;1.20;;
69319;SDS011;56467;53.502;49.248;2022-09-27T14:34:43;1.48;;;1.10;;
69319;SDS011;56467;53.502;49.248;2022-09-27T14:37:19;1.30;;;1.20;;
69319;SDS011;56467;53.502;49.248;2022-09-27T14:39:55;1.48;;;1.15;;
69319;SDS011;56467;53.502;49.248;2022-09-27T14:42:35;1.17;;;1.10;;
69319;SDS011;56467;53.502;49.248;2022-09-27T14:45:06;1.30;;;1.05;;
69319;SDS011;56467;53.502;49.248;2022-09-27T14:48:31;1.25;;;1.13;;
69319;SDS011;56467;53.502;49.248;2022-09-27T14:50:59;1.85;;;1.25;;
69319;SDS011;56467;53.502;49.248;2022-09-27T14:53:30;1.40;;;1.30;;
69319;SDS011;56467;53.502;49.248;2022-09-27T14:55:59;2.20;;;1.10;;
69319;SDS011;56467;53.502;49.248;2022-09-27T14:58:27;1.30;;;1.20;;
69319;SDS011;56467;53.502;49.248;2022-09-27T15:00:54;1.35;;;1.20;;
69319;SDS011;56467;53.502;49.248;2022-09-27T15:03:28;2.05;;;1.30;;
69319;SDS011;56467;53.502;49.248;2022-09-27T15:05:56;2.38;;;1.20;;
69319;SDS011;56467;53.502;49.248;2022-09-27T15:08:24;1.20;;;1.10;;
69319;SDS011;56467;53.502;49.248;2022-09-27T15:10:54;1.50;;;1.20;;
69319;SDS011;56467;53.502;49.248;2022-09-27T15:13:21;1.25;;;1.15;;
69319;SDS011;56467;53.502;49.248;2022-09-27T15:15:49;1.65;;;1.10;;
69319;SDS011;56467;53.502;49.248;2022-09-27T15:21:12;1.58;;;1.10;;
69319;SDS011;56467;53.502;49.248;2022-09-27T15:23:58;2.30;;;1.17;;
69319;SDS011;56467;53.502;49.248;2022-09-27T15:26:34;1.52;;;1.10;;
69319;SDS011;56467;53.502;49.248;2022-09-27T15:29:00;1.23;;;1.10;;
69319;SDS011;56467;53.502;49.248;2022-09-27T15:31:28;1.95;;;1.23;;
69319;SDS011;56467;53.502;49.248;2022-09-27T15:34:00;1.05;;;1.00;;
69319;SDS011;56467;53.502;49.248;2022-09-27T15:39:24;2.17;;;1.20;;
69319;SDS011;56467;53.502;49.248;2022-09-27T15:42:00;1.88;;;1.10;;
69319;SDS011;56467;53.502;49.248;2022-09-27T15:49:57;1.27;;;1.17;;
69319;SDS011;56467;53.502;49.248;2022-09-27T15:55:24;1.20;;;1.10;;
69319;SDS011;56467;53.502;49.248;2022-09-27T15:57:55;2.08;;;1.30;;
69319;SDS011;56467;53.502;49.248;2022-09-27T16:00:26;1.02;;;1.00;;
69319;SDS011;56467;53.502;49.248;2022-09-27T16:02:53;1.60;;;1.27;;
69319;SDS011;56467;53.502;49.248;2022-09-27T16:05:19;1.42;;;1.10;;
69319;SDS011;56467;53.502;49.248;2022-09-27T16:07:47;1.42;;;1.10;;
69319;SDS011;56467;53.502;49.248;2022-09-27T16:10:18;1.27;;;1.10;;
69319;SDS011;56467;53.502;49.248;2022-09-27T16:13:10;2.15;;;1.10;;
69319;SDS011;56467;53.502;49.248;2022-09-27T16:15:36;1.52;;;1.10;;
69319;SDS011;56467;53.502;49.248;2022-09-27T16:18:02;1.63;;;1.20;;
69319;SDS011;56467;53.502;49.248;2022-09-27T16:20:28;1.00;;;0.98;;
69319;SDS011;56467;53.502;49.248;2022-09-27T16:22:56;1.42;;;1.20;;
69319;SDS011;56467;53.502;49.248;2022-09-27T16:25:22;2.65;;;1.20;;
69319;SDS011;56467;53.502;49.248;2022-09-27T16:27:49;1.40;;;1.08;;
69319;SDS011;56467;53.502;49.248;2022-09-27T16:30:16;1.08;;;0.95;;
69319;SDS011;56467;53.502;49.248;2022-09-27T16:32:45;1.52;;;1.10;;
69319;SDS011;56467;53.502;49.248;2022-09-27T16:35:13;1.67;;;0.90;;
69319;SDS011;56467;53.502;49.248;2022-09-27T16:37:40;1.52;;;1.15;;
69319;SDS011;56467;53.502;49.248;2022-09-27T16:40:06;1.10;;;1.00;;
69319;SDS011;56467;53.502;49.248;2022-09-27T16:42:34;1.00;;;0.85;;
69319;SDS011;56467;53.502;49.248;2022-09-27T16:45:00;1.10;;;0.98;;
69319;SDS011;56467;53.502;49.248;2022-09-27T16:47:27;1.23;;;1.10;;
69319;SDS011;56467;53.502;49.248;2022-09-27T16:49:53;1.20;;;1.05;;
69319;SDS011;56467;53.502;49.248;2022-09-27T16:52:37;1.25;;;1.00;;
69319;SDS011;56467;53.502;49.248;2022-09-27T16:55:03;1.20;;;1.10;;
69319;SDS011;56467;53.502;49.248;2022-09-27T16:57:31;1.02;;;0.93;;
69319;SDS011;56467;53.502;49.248;2022-09-27T16:59:58;1.33;;;1.08;;
69319;SDS011;56467;53.502;49.248;2022-09-27T17:02:24;0.98;;;0.90;;
69319;SDS011;56467;53.502;49.248;2022-09-27T17:04:52;1.67;;;0.98;;
69319;SDS011;56467;53.502;49.248;2022-09-27T17:07:18;1.25;;;1.15;;
69319;SDS011;56467;53.502;49.248;2022-09-27T17:09:44;1.23;;;0.95;;
69319;SDS011;56467;53.502;49.248;2022-09-27T17:12:12;1.38;;;0.93;;
69319;SDS011;56467;53.502;49.248;2022-09-27T17:14:38;2.25;;;1.00;;
69319;SDS011;56467;53.502;49.248;2022-09-27T17:17:05;1.30;;;1.02;;
69319;SDS011;56467;53.502;49.248;2022-09-27T17:19:31;1.27;;;1.00;;
69319;SDS011;56467;53.502;49.248;2022-09-27T17:21:59;0.95;;;0.90;;
69319;SDS011;56467;53.502;49.248;2022-09-27T17:24:31;1.27;;;1.00;;
69319;SDS011;56467;53.502;49.248;2022-09-27T17:26:57;1.25;;;1.10;;
69319;SDS011;56467;53.502;49.248;2022-09-27T17:29:22;1.15;;;1.08;;
69319;SDS011;56467;53.502;49.248;2022-09-27T17:31:49;1.17;;;1.08;;
69319;SDS011;56467;53.502;49.248;2022-09-27T17:34:15;0.98;;;0.93;;
69319;SDS011;56467;53.502;49.248;2022-09-27T17:36:42;1.15;;;1.00;;
69319;SDS011;56467;53.502;49.248;2022-09-27T17:39:15;1.52;;;0.98;;
69319;SDS011;56467;53.502;49.248;2022-09-27T17:41:43;1.15;;;1.05;;
69319;SDS011;56467;53.502;49.248;2022-09-27T17:44:12;1.15;;;1.05;;
69319;SDS011;56467;53.502;49.248;2022-09-27T17:46:39;2.20;;;1.05;;
69319;SDS011;56467;53.502;49.248;2022-09-27T17:49:06;1.13;;;0.90;;
69319;SDS011;56467;53.502;49.248;2022-09-27T17:51:52;1.20;;;1.10;;
69319;SDS011;56467;53.502;49.248;2022-09-27T17:54:19;1.30;;;1.00;;
69319;SDS011;56467;53.502;49.248;2022-09-27T17:56:47;1.30;;;0.98;;
69319;SDS011;56467;53.502;49.248;2022-09-27T17:59:14;1.40;;;1.10;;
69319;SDS011;56467;53.502;49.248;2022-09-27T18:01:41;1.10;;;1.00;;
69319;SDS011;56467;53.502;49.248;2022-09-27T18:04:09;1.08;;;0.98;;